This is the latest recevied weather packets stored in our database for station/object OK1LPD-5. If no packets are shown the sender has not sent any weather packets the latest 10 day(s).
| Time | Temp. | Humidity | Pressure | Rain* | Wind** | Luminosity | Snow |
|---|---|---|---|---|---|---|---|
| 1777446608 | 8.33° C | 51% | 1024.3 hPa | 0 mm | - | - | - |
| 1777446009 | 8.33° C | 49% | 1024.2 hPa | 0 mm | - | - | - |
| 1777444809 | 7.78° C | 52% | 1024.5 hPa | 0 mm | - | - | - |
| 1777444209 | 7.78° C | 55% | 1024.6 hPa | 0 mm | - | - | - |
| 1777443611 | 6.67° C | 57% | 1024.5 hPa | 0 mm | - | - | - |
| 1777443008 | 6.11° C | 63% | 1024.5 hPa | 0 mm | - | - | - |
| 1777442409 | 5.56° C | 62% | 1024.3 hPa | 0 mm | - | - | - |
| 1777441812 | 5.56° C | 63% | 1024.3 hPa | 0 mm | - | - | - |
| 1777441210 | 5° C | 66% | 1024.4 hPa | 0 mm | - | - | - |
| 1777440609 | 4.44° C | 69% | 1024.2 hPa | 0 mm | - | - | - |
| 1777440012 | 3.89° C | 70% | 1024.1 hPa | 0 mm | - | - | - |
| 1777439409 | 3.89° C | 71% | 1024 hPa | 0 mm | - | - | - |
| 1777438809 | 2.78° C | 73% | 1023.8 hPa | 0 mm | - | - | - |
| 1777438209 | 2.22° C | 75% | 1023.7 hPa | 0 mm | - | - | - |
| 1777437608 | 2.22° C | 76% | 1023.5 hPa | 0 mm | - | - | - |
| 1777437009 | 2.22° C | 76% | 1023.4 hPa | 0 mm | - | - | - |
| 1777435809 | 1.67° C | 73% | 1023.2 hPa | 0 mm | - | - | - |
| 1777414213 | 8.33° C | 55% | 1019.8 hPa | 0 mm | - | - | - |
| 1777413611 | 8.89° C | 55% | 1019.5 hPa | 0 mm | - | - | - |
| 1777411214 | 9.44° C | 59% | 1019.1 hPa | 0 mm | - | - | - |
| 1777410612 | 10° C | 59% | 1018.9 hPa | 0 mm | - | - | - |
| 1777410011 | 10° C | 60% | 1018.6 hPa | 0 mm | - | - | - |
| 1777407611 | 11.11° C | 59% | 1018 hPa | 0 mm | - | - | - |
| 1777407010 | 11.11° C | 59% | 1017.9 hPa | 0 mm | - | - | - |
| 1777404013 | 12.22° C | 54% | 1017 hPa | 0 mm | - | - | - |
* Rain latest hour (hover to see other rain measurements)
** Current wind speed in m/s (hover to see current wind gust speed)